Latest Weather Observations for Padthaway

IDS60801

Issued at 8:51 pm CDT Tuesday 23 October 2018 (issued every 10 minutes, with the page automatically refreshed every 10 minutes)

About weather observations | Map of weather stations | Latest weather observations for SA | Other Formats
Station Details ID: 026100 Name: PADTHAWAY SOUTH Lat: -36.65 Lon: 140.52 Height: 37.0 m
Data from the previous 72 hours. | See also: Recent months at Padthaway
Date/Time
CDT
Temp
°C
App
Temp
°C
Dew
Point
°C
Rel
Hum
%
Delta-T
°C
Wind Press
QNH
hPa
Press
MSL
hPa
Rain since
9am
mm
Dir  Spd
km/h
Gust
km/h
Spd
kts
Gust
kts
23/08:30pm 9.4 8.1 4.2 70 2.3 CALM 0 0 0 0 - - 0.0
23/08:00pm 9.9 7.5 4.1 67 2.6 SSW 6 15 3 8 - - 0.0
23/07:30pm 11.1 8.3 3.4 59 3.4 SSW 7 15 4 8 - - 0.0
23/07:00pm 12.2 8.2 2.9 53 4.1 SW 13 20 7 11 - - 0.0
23/06:30pm 13.7 10.1 3.2 49 4.7 SW 11 20 6 11 - - 0.0
23/06:00pm 13.7 8.5 3.8 51 4.5 SSW 20 30 11 16 - - 0.0
23/05:30pm 14.6 9.4 3.7 48 5.0 SW 20 35 11 19 - - 0.0
23/05:00pm 13.9 8.9 4.8 54 4.2 SW 20 32 11 17 - - 0.0
23/04:30pm 14.9 9.3 3.4 46 5.2 SW 22 33 12 18 - - 0.0
23/04:00pm 15.9 9.8 3.0 42 5.9 SSW 24 41 13 22 - - 0.0
23/03:30pm 16.9 11.1 2.5 38 6.5 WSW 22 39 12 21 - - 0.0
23/03:00pm 17.1 11.2 1.9 36 6.8 SW 22 35 12 19 - - 0.0
23/02:30pm 16.9 10.8 2.5 38 6.5 WSW 24 41 13 22 - - 0.0
23/02:00pm 17.1 11.6 3.8 41 6.2 WSW 22 39 12 21 - - 0.0
23/01:30pm 16.7 10.8 3.7 42 6.0 SW 24 39 13 21 - - 0.0
23/01:00pm 17.8 11.8 5.4 44 6.0 WSW 26 41 14 22 - - 0.0
23/12:30pm 18.2 12.4 4.4 40 6.6 WSW 24 35 13 19 - - 0.0
23/12:00pm 16.4 11.5 5.1 47 5.4 SW 20 30 11 16 - - 0.0
23/11:30am 14.7 10.4 7.0 60 3.8 SW 19 30 10 16 - - 0.0
23/11:00am 15.2 10.9 7.0 58 4.0 WSW 19 28 10 15 - - 0.0
23/10:30am 14.5 9.9 5.8 56 4.1 WSW 19 28 10 15 - - 0.0
23/10:00am 14.3 7.4 6.6 60 3.7 SW 32 50 17 27 - - 0.0
23/09:50am 14.3 8.3 6.9 61 3.6 WSW 28 48 15 26 - - 0.0
23/09:42am 13.7 7.6 6.8 63 3.3 WSW 28 44 15 24 - - 0.0
23/09:30am 15.1 11.1 8.3 64 3.4 WSW 19 26 10 14 - - 0.0
23/09:00am 14.7 11.4 8.0 64 3.3 WSW 15 24 8 13 - - 0.0
23/08:30am 13.1 10.6 8.0 71 2.5 WSW 11 17 6 9 - - 0.0
23/08:00am 11.8 11.5 8.5 80 1.6 CALM 0 0 0 0 - - 0.0
23/07:30am 9.8 9.3 7.7 87 1.0 CALM 0 0 0 0 - - 0.0
23/07:00am 8.5 7.9 7.3 92 0.6 CALM 0 0 0 0 - - 0.0
23/06:30am 7.7 6.9 6.6 93 0.5 CALM 0 0 0 0 - - 0.0
23/06:00am 8.9 8.4 8.0 94 0.4 CALM 0 0 0 0 - - 0.0
23/05:30am 9.5 9.1 8.4 93 0.5 CALM 0 0 0 0 - - 0.0
23/05:00am 10.5 10.4 9.3 92 0.6 CALM 0 7 0 4 - - 0.0
23/04:30am 10.5 10.4 9.3 92 0.6 CALM 0 0 0 0 - - 0.0
23/04:00am 10.8 10.7 9.4 91 0.7 CALM 0 0 0 0 - - 0.0
23/03:30am 10.1 9.8 8.5 90 0.8 CALM 0 0 0 0 - - 0.0
23/03:00am 11.5 11.5 9.8 89 0.9 CALM 0 0 0 0 - - 0.0
23/02:30am 11.6 11.7 10.2 91 0.7 CALM 0 11 0 6 - - 0.0
23/02:00am 12.0 12.1 10.2 89 0.9 CALM 0 0 0 0 - - 0.0
23/01:30am 12.0 12.1 10.2 89 0.9 CALM 0 0 0 0 - - 0.0
23/01:00am 12.0 12.1 10.2 89 0.9 CALM 0 0 0 0 - - 0.0
23/12:30am 11.8 11.8 9.9 88 1.0 CALM 0 0 0 0 - - 0.0
23/12:00am 11.8 11.8 9.9 88 1.0 CALM 0 0 0 0 - - 0.0
 
Date/Time
CDT
Temp
°C
App
Temp
°C
Dew
Point
°C
Rel
Hum
%
Delta-T
°C
Wind Press
QNH
hPa
Press
MSL
hPa
Rain since
9am
mm
Dir  Spd
km/h
Gust
km/h
Spd
kts
Gust
kts
22/11:30pm 12.5 12.5 9.9 84 1.3 CALM 0 0 0 0 - - 0.0
22/11:00pm 13.0 13.1 10.0 82 1.5 CALM 0 0 0 0 - - 0.0
22/10:30pm 13.3 13.0 10.1 81 1.7 SE 2 11 1 6 - - 0.0
22/10:00pm 13.6 13.7 10.0 79 1.9 CALM 0 0 0 0 - - 0.0
22/09:30pm 13.8 13.8 9.8 77 2.1 CALM 0 0 0 0 - - 0.0
22/09:00pm 14.2 12.1 9.6 74 2.4 SSW 11 19 6 10 - - 0.0
22/08:30pm 14.7 14.7 9.7 72 2.6 CALM 0 6 0 3 - - 0.0
22/08:00pm 15.0 11.9 8.9 67 3.1 SW 15 22 8 12 - - 0.0
22/07:30pm 15.9 13.2 10.4 70 2.9 SSW 15 28 8 15 - - 0.0
22/07:00pm 16.7 14.2 9.6 63 3.7 SW 13 20 7 11 - - 0.0
22/06:30pm 17.7 14.5 8.6 55 4.7 SW 15 24 8 13 - - 0.0
22/06:00pm 18.7 14.5 8.1 50 5.5 SW 20 32 11 17 - - 0.0
22/05:30pm 20.6 15.8 5.8 38 7.4 WSW 20 37 11 20 - - 0.0
22/05:00pm 22.9 17.8 3.9 29 9.3 SW 20 32 11 17 - - 0.0
22/04:30pm 23.8 18.1 4.7 29 9.5 WSW 24 35 13 19 - - 0.0
22/04:00pm 25.5 19.7 6.2 29 10.0 W 26 37 14 20 - - 0.0
22/03:30pm 26.4 20.0 5.4 26 10.8 W 28 43 15 23 - - 0.0
22/03:23pm 26.6 20.2 5.0 25 11.0 WNW 28 46 15 25 - - 0.0
22/03:00pm 26.6 21.2 4.4 24 11.2 NW 22 33 12 18 - - 0.0
22/02:30pm 26.5 21.7 5.5 26 10.8 WNW 20 33 11 18 - - 0.0
22/02:00pm 26.0 21.0 4.5 25 10.8 WNW 20 33 11 18 - - 0.0
22/01:30pm 25.5 19.8 2.9 23 11.0 WNW 22 33 12 18 - - 0.0
22/01:00pm 25.1 19.5 3.7 25 10.6 WNW 22 39 12 21 - - 0.0
22/12:30pm 25.7 19.3 3.0 23 11.1 NW 26 39 14 21 - - 0.0
22/12:01pm 25.9 18.4 3.2 23 11.2 NW 32 50 17 27 - - 0.0
22/12:00pm 25.5 17.6 2.2 22 11.2 NW 33 50 18 27 - - 0.0
22/11:40am 25.1 17.2 1.3 21 11.2 NW 32 50 17 27 - - 0.0
22/11:30am 24.7 17.4 2.2 23 10.8 NW 30 44 16 24 - - 0.0
22/11:00am 24.9 17.9 1.7 22 11.0 NNW 28 46 15 25 - - 0.0
22/10:59am 24.9 17.8 1.1 21 11.2 NNW 28 46 15 25 - - 0.0
22/10:30am 23.9 17.5 3.2 26 10.0 NNW 26 35 14 19 - - 0.0
22/10:00am 23.6 17.1 2.4 25 10.1 NNW 26 41 14 22 - - 0.0
22/09:30am 22.2 16.4 4.3 31 8.8 N 24 35 13 19 - - 0.0
22/09:00am 21.0 15.0 3.2 31 8.5 NNW 24 35 13 19 - - 0.0
22/08:30am 19.6 14.0 3.3 34 7.7 N 22 37 12 20 - - 0.0
22/08:00am 17.6 11.4 2.4 36 6.9 N 24 43 13 23 - - 0.0
22/07:30am 15.9 9.0 2.3 40 6.1 NNE 28 39 15 21 - - 0.0
22/07:00am 14.7 8.6 2.6 44 5.4 NNE 24 32 13 17 - - 0.0
22/06:30am 14.4 8.7 2.9 46 5.1 NNE 22 33 12 18 - - 0.0
22/06:00am 14.0 9.3 3.2 48 4.9 NNE 17 28 9 15 - - 0.0
22/05:30am 14.1 9.0 3.3 48 4.9 NNE 19 30 10 16 - - 0.0
22/05:00am 14.3 9.7 3.5 48 4.9 NNE 17 24 9 13 - - 0.0
22/04:30am 14.6 10.0 3.7 48 5.0 NNE 17 28 9 15 - - 0.0
22/04:00am 14.1 10.0 4.4 52 4.5 NNE 15 20 8 11 - - 0.0
22/03:30am 13.5 12.0 4.9 56 4.0 N 2 9 1 5 - - 0.0
22/03:00am 13.5 11.7 5.2 57 3.9 N 4 15 2 8 - - 0.0
22/02:30am 13.3 11.9 5.7 60 3.6 NNE 2 11 1 6 - - 0.0
22/02:00am 11.9 11.0 6.2 68 2.7 CALM 0 0 0 0 - - 0.0
22/01:30am 11.1 10.4 7.0 76 2.0 CALM 0 0 0 0 - - 0.0
22/01:00am 12.6 12.1 7.7 72 2.4 CALM 0 0 0 0 - - 0.0
22/12:30am 13.3 11.2 8.2 71 2.5 NE 9 17 5 9 - - 0.0
22/12:00am 13.4 12.6 8.3 71 2.5 NE 2 11 1 6 - - 0.0
 
Date/Time
CDT
Temp
°C
App
Temp
°C
Dew
Point
°C
Rel
Hum
%
Delta-T
°C
Wind Press
QNH
hPa
Press
MSL
hPa
Rain since
9am
mm
Dir  Spd
km/h
Gust
km/h
Spd
kts
Gust
kts
21/11:30pm 12.8 12.5 8.5 75 2.1 CALM 0 6 0 3 - - 0.0
21/11:00pm 12.7 11.1 8.6 76 2.0 ENE 7 15 4 8 - - 0.0
21/10:30pm 10.8 10.1 8.4 85 1.2 ENE 2 13 1 7 - - 0.0
21/10:00pm 10.2 9.6 7.4 83 1.3 CALM 0 0 0 0 - - 0.0
21/09:30pm 10.8 10.3 7.9 82 1.4 CALM 0 0 0 0 - - 0.0
21/09:00pm 12.3 11.9 8.4 77 1.9 CALM 0 0 0 0 - - 0.0
21/08:30pm 12.7 12.4 8.6 76 2.0 CALM 0 0 0 0 - - 0.0
21/08:00pm 14.2 13.9 8.8 70 2.7 CALM 0 0 0 0 - - 0.0
21/07:30pm 17.2 17.0 9.1 59 4.2 CALM 0 0 0 0 - - 0.0
21/07:00pm 19.4 18.7 6.8 44 6.3 CALM 0 0 0 0 - - 0.0
21/06:30pm 20.1 18.4 5.7 39 7.1 NNW 4 15 2 8 - - 0.0
21/06:00pm 20.4 18.2 6.4 40 7.0 N 7 15 4 8 - - 0.0
21/05:30pm 20.4 19.4 7.4 43 6.7 NNE 2 13 1 7 - - 0.0
21/05:00pm 20.9 19.2 7.5 42 6.9 NNW 6 13 3 7 - - 0.0
21/04:30pm 20.4 18.6 7.1 42 6.8 NW 6 17 3 9 - - 0.0
21/04:00pm 20.2 19.3 7.6 44 6.5 NNE 2 9 1 5 - - 0.0
21/03:30pm 20.3 19.8 8.0 45 6.4 CALM 0 9 0 5 - - 0.0
21/03:00pm 20.0 18.6 7.4 44 6.4 WNW 4 13 2 7 - - 0.0
21/02:30pm 19.0 18.2 8.1 49 5.6 S 2 11 1 6 - - 0.0
21/02:00pm 18.1 16.2 6.9 48 5.6 NW 6 13 3 7 - - 0.0
21/01:30pm 17.9 16.1 7.0 49 5.5 WSW 6 15 3 8 - - 0.0
21/01:00pm 18.1 16.1 7.2 49 5.5 WNW 7 17 4 9 - - 0.0
21/12:30pm 17.4 15.5 6.6 49 5.3 W 6 13 3 7 - - 0.0
21/12:00pm 17.6 16.2 7.1 50 5.3 WNW 4 15 2 8 - - 0.0
21/11:30am 16.9 14.8 6.7 51 5.0 NNW 7 17 4 9 - - 0.0
21/11:00am 16.7 14.4 7.4 54 4.7 NNW 9 17 5 9 - - 0.0
21/10:30am 16.1 14.3 7.8 58 4.2 NNW 7 13 4 7 - - 0.0
21/10:00am 14.9 12.7 7.9 63 3.5 NNW 9 15 5 8 - - 0.0
21/09:30am 14.2 12.0 7.9 66 3.1 NNW 9 17 5 9 - - 0.0
21/09:00am 13.1 11.7 9.4 78 1.9 NW 7 15 4 8 - - 0.0
21/08:30am 11.4 9.1 9.0 85 1.2 NW 11 15 6 8 - - 0.0
21/08:00am 9.4 9.1 8.8 96 0.3 CALM 0 9 0 5 - - 0.0
21/07:30am 7.1 6.4 7.0 99 0.0 CALM 0 0 0 0 - - 0.0
21/07:00am 4.5 3.2 4.2 98 0.1 CALM 0 0 0 0 - - 0.0
21/06:30am 2.8 1.2 2.2 96 0.2 CALM 0 0 0 0 - - 0.0
21/06:00am 2.9 1.3 2.3 96 0.2 CALM 0 0 0 0 - - 0.0
21/05:30am 3.1 1.5 2.5 96 0.2 CALM 0 0 0 0 - - 0.0
21/05:00am 3.2 1.6 2.5 95 0.3 CALM 0 0 0 0 - - 0.0
21/04:30am 3.5 2.0 2.8 95 0.3 CALM 0 0 0 0 - - 0.0
21/04:00am 3.7 2.2 3.0 95 0.3 CALM 0 0 0 0 - - 0.0
21/03:30am 4.0 2.6 3.3 95 0.3 CALM 0 0 0 0 - - 0.0
21/03:00am 4.3 2.9 3.4 94 0.4 CALM 0 0 0 0 - - 0.0
21/02:30am 4.4 3.0 3.5 94 0.4 CALM 0 0 0 0 - - 0.0
21/02:00am 4.7 3.3 3.7 93 0.4 CALM 0 0 0 0 - - 0.0
21/01:30am 5.3 4.1 4.4 94 0.4 CALM 0 0 0 0 - - 0.0
21/01:00am 5.5 4.3 4.5 93 0.4 CALM 0 0 0 0 - - 0.0
21/12:30am 5.8 4.6 4.8 93 0.4 CALM 0 0 0 0 - - 0.0
21/12:00am 6.2 5.1 5.0 92 0.5 CALM 0 0 0 0 - - 0.0
 
Date/Time
CDT
Temp
°C
App
Temp
°C
Dew
Point
°C
Rel
Hum
%
Delta-T
°C
Wind Press
QNH
hPa
Press
MSL
hPa
Rain since
9am
mm
Dir  Spd
km/h
Gust
km/h
Spd
kts
Gust
kts
20/11:30pm 6.7 5.6 5.3 91 0.6 CALM 0 0 0 0 - - 0.0
20/11:00pm 7.0 6.0 5.6 91 0.6 CALM 0 0 0 0 - - 0.0
20/10:30pm 7.4 6.4 5.7 89 0.8 CALM 0 0 0 0 - - 0.0
20/10:00pm 8.2 7.4 6.5 89 0.8 CALM 0 0 0 0 - - 0.0
20/09:30pm 8.6 7.7 6.2 85 1.1 CALM 0 0 0 0 - - 0.0
20/09:00pm 9.8 9.1 6.9 82 1.4 CALM 0 0 0 0 - - 0.0

Other Formats:

Comma delimited format used in spreadsheet applications
http://www.bom.gov.au/fwo/IDS60801/IDS60801.95823.axf

JavaScript Object Notation format (JSON) in row-major order
http://www.bom.gov.au/fwo/IDS60801/IDS60801.95823.json